sensor_id;sensor_type;location;lat;lon;timestamp;P1;durP1;ratioP1;P2;durP2;ratioP2
22240;SDS011;11289;52.524;13.694;2023-05-10T00:01:17;6.38;;;5.03;;
22240;SDS011;11289;52.524;13.694;2023-05-10T00:03:43;8.60;;;5.75;;
22240;SDS011;11289;52.524;13.694;2023-05-10T00:06:09;6.45;;;5.45;;
22240;SDS011;11289;52.524;13.694;2023-05-10T00:08:35;8.45;;;5.68;;
22240;SDS011;11289;52.524;13.694;2023-05-10T00:11:01;7.28;;;5.15;;
22240;SDS011;11289;52.524;13.694;2023-05-10T00:13:27;9.65;;;5.88;;
22240;SDS011;11289;52.524;13.694;2023-05-10T00:15:53;7.65;;;5.30;;
22240;SDS011;11289;52.524;13.694;2023-05-10T00:18:19;7.00;;;5.20;;
22240;SDS011;11289;52.524;13.694;2023-05-10T00:20:45;5.90;;;4.93;;
22240;SDS011;11289;52.524;13.694;2023-05-10T00:23:11;9.75;;;5.35;;
22240;SDS011;11289;52.524;13.694;2023-05-10T00:25:38;7.70;;;5.75;;
22240;SDS011;11289;52.524;13.694;2023-05-10T00:28:04;6.93;;;5.60;;
22240;SDS011;11289;52.524;13.694;2023-05-10T00:30:30;7.05;;;5.45;;
22240;SDS011;11289;52.524;13.694;2023-05-10T00:32:56;8.50;;;5.93;;
22240;SDS011;11289;52.524;13.694;2023-05-10T00:35:22;10.65;;;5.70;;
22240;SDS011;11289;52.524;13.694;2023-05-10T00:37:48;9.20;;;6.22;;
22240;SDS011;11289;52.524;13.694;2023-05-10T00:40:14;9.23;;;6.03;;
22240;SDS011;11289;52.524;13.694;2023-05-10T00:42:40;9.50;;;5.40;;
22240;SDS011;11289;52.524;13.694;2023-05-10T00:45:06;8.45;;;5.57;;
22240;SDS011;11289;52.524;13.694;2023-05-10T00:47:32;8.55;;;5.53;;
22240;SDS011;11289;52.524;13.694;2023-05-10T00:49:59;7.30;;;5.60;;
22240;SDS011;11289;52.524;13.694;2023-05-10T00:52:26;8.52;;;5.78;;
22240;SDS011;11289;52.524;13.694;2023-05-10T00:54:53;8.52;;;5.45;;
22240;SDS011;11289;52.524;13.694;2023-05-10T00:57:24;6.60;;;5.85;;
22240;SDS011;11289;52.524;13.694;2023-05-10T00:59:50;8.30;;;5.63;;
22240;SDS011;11289;52.524;13.694;2023-05-10T01:02:17;8.77;;;5.80;;
22240;SDS011;11289;52.524;13.694;2023-05-10T01:04:43;8.30;;;5.13;;
22240;SDS011;11289;52.524;13.694;2023-05-10T01:07:10;8.70;;;5.47;;
22240;SDS011;11289;52.524;13.694;2023-05-10T01:09:36;8.25;;;6.00;;
22240;SDS011;11289;52.524;13.694;2023-05-10T01:12:03;8.10;;;5.88;;
22240;SDS011;11289;52.524;13.694;2023-05-10T01:14:32;9.00;;;5.88;;
22240;SDS011;11289;52.524;13.694;2023-05-10T01:17:00;9.40;;;6.35;;
22240;SDS011;11289;52.524;13.694;2023-05-10T01:19:27;7.78;;;5.65;;
22240;SDS011;11289;52.524;13.694;2023-05-10T01:22:20;11.85;;;6.80;;
22240;SDS011;11289;52.524;13.694;2023-05-10T01:33:19;9.73;;;5.80;;
22240;SDS011;11289;52.524;13.694;2023-05-10T01:38:52;6.78;;;5.45;;
22240;SDS011;11289;52.524;13.694;2023-05-10T01:44:06;9.10;;;6.30;;
22240;SDS011;11289;52.524;13.694;2023-05-10T01:46:44;8.70;;;6.20;;
22240;SDS011;11289;52.524;13.694;2023-05-10T01:49:34;9.10;;;6.20;;
22240;SDS011;11289;52.524;13.694;2023-05-10T01:52:10;7.28;;;5.10;;
22240;SDS011;11289;52.524;13.694;2023-05-10T01:54:41;7.25;;;5.78;;
22240;SDS011;11289;52.524;13.694;2023-05-10T01:57:10;7.10;;;5.22;;
22240;SDS011;11289;52.524;13.694;2023-05-10T01:59:39;9.43;;;5.90;;
22240;SDS011;11289;52.524;13.694;2023-05-10T02:02:08;10.30;;;5.72;;
22240;SDS011;11289;52.524;13.694;2023-05-10T02:04:38;9.05;;;4.95;;
22240;SDS011;11289;52.524;13.694;2023-05-10T02:07:06;7.80;;;5.25;;
22240;SDS011;11289;52.524;13.694;2023-05-10T02:09:34;7.03;;;4.78;;
22240;SDS011;11289;52.524;13.694;2023-05-10T02:12:01;8.15;;;5.72;;
22240;SDS011;11289;52.524;13.694;2023-05-10T02:14:30;10.95;;;6.03;;
22240;SDS011;11289;52.524;13.694;2023-05-10T02:17:01;9.07;;;5.43;;
22240;SDS011;11289;52.524;13.694;2023-05-10T02:19:31;6.05;;;5.20;;
22240;SDS011;11289;52.524;13.694;2023-05-10T02:21:58;6.80;;;4.95;;
22240;SDS011;11289;52.524;13.694;2023-05-10T02:24:26;11.07;;;6.00;;
22240;SDS011;11289;52.524;13.694;2023-05-10T02:26:54;8.50;;;5.38;;
22240;SDS011;11289;52.524;13.694;2023-05-10T02:29:22;7.85;;;5.32;;
22240;SDS011;11289;52.524;13.694;2023-05-10T02:31:54;9.98;;;5.47;;
22240;SDS011;11289;52.524;13.694;2023-05-10T02:34:21;8.30;;;5.63;;
22240;SDS011;11289;52.524;13.694;2023-05-10T02:36:48;8.00;;;5.13;;
22240;SDS011;11289;52.524;13.694;2023-05-10T02:41:48;7.45;;;5.15;;
22240;SDS011;11289;52.524;13.694;2023-05-10T02:46:47;9.38;;;4.43;;
22240;SDS011;11289;52.524;13.694;2023-05-10T02:49:14;6.22;;;5.20;;
22240;SDS011;11289;52.524;13.694;2023-05-10T02:51:41;7.30;;;5.13;;
22240;SDS011;11289;52.524;13.694;2023-05-10T02:54:15;8.27;;;5.25;;
22240;SDS011;11289;52.524;13.694;2023-05-10T02:59:23;7.60;;;4.75;;
22240;SDS011;11289;52.524;13.694;2023-05-10T03:01:49;10.18;;;5.60;;
22240;SDS011;11289;52.524;13.694;2023-05-10T03:04:15;7.22;;;5.28;;
22240;SDS011;11289;52.524;13.694;2023-05-10T03:06:41;9.95;;;5.45;;
22240;SDS011;11289;52.524;13.694;2023-05-10T03:09:09;7.15;;;5.32;;
22240;SDS011;11289;52.524;13.694;2023-05-10T03:11:43;7.13;;;6.00;;
22240;SDS011;11289;52.524;13.694;2023-05-10T03:17:01;8.55;;;5.68;;
22240;SDS011;11289;52.524;13.694;2023-05-10T03:19:39;7.63;;;5.78;;
22240;SDS011;11289;52.524;13.694;2023-05-10T03:22:08;6.80;;;5.10;;
22240;SDS011;11289;52.524;13.694;2023-05-10T03:24:36;8.45;;;5.53;;
22240;SDS011;11289;52.524;13.694;2023-05-10T03:27:06;6.75;;;4.95;;
22240;SDS011;11289;52.524;13.694;2023-05-10T03:29:33;7.45;;;4.93;;
22240;SDS011;11289;52.524;13.694;2023-05-10T03:31:59;7.47;;;5.43;;
22240;SDS011;11289;52.524;13.694;2023-05-10T03:34:25;9.65;;;5.00;;
22240;SDS011;11289;52.524;13.694;2023-05-10T03:36:52;7.10;;;5.60;;
22240;SDS011;11289;52.524;13.694;2023-05-10T03:39:18;7.75;;;5.28;;
22240;SDS011;11289;52.524;13.694;2023-05-10T03:41:44;8.43;;;5.80;;
22240;SDS011;11289;52.524;13.694;2023-05-10T03:44:10;6.15;;;4.95;;
22240;SDS011;11289;52.524;13.694;2023-05-10T03:46:36;8.48;;;5.80;;
22240;SDS011;11289;52.524;13.694;2023-05-10T03:49:02;9.68;;;5.65;;
22240;SDS011;11289;52.524;13.694;2023-05-10T03:51:28;7.60;;;4.45;;
22240;SDS011;11289;52.524;13.694;2023-05-10T03:53:54;7.25;;;4.00;;
22240;SDS011;11289;52.524;13.694;2023-05-10T03:56:21;6.57;;;4.28;;
22240;SDS011;11289;52.524;13.694;2023-05-10T03:58:47;11.48;;;4.45;;
22240;SDS011;11289;52.524;13.694;2023-05-10T04:01:13;8.48;;;4.70;;
22240;SDS011;11289;52.524;13.694;2023-05-10T04:03:38;10.43;;;5.47;;
22240;SDS011;11289;52.524;13.694;2023-05-10T04:06:05;5.95;;;4.53;;
22240;SDS011;11289;52.524;13.694;2023-05-10T04:08:31;8.18;;;5.40;;
22240;SDS011;11289;52.524;13.694;2023-05-10T04:11:10;6.15;;;5.15;;
22240;SDS011;11289;52.524;13.694;2023-05-10T04:13:37;7.80;;;5.15;;
22240;SDS011;11289;52.524;13.694;2023-05-10T04:16:03;9.45;;;5.80;;
22240;SDS011;11289;52.524;13.694;2023-05-10T04:18:30;7.63;;;5.57;;
22240;SDS011;11289;52.524;13.694;2023-05-10T04:20:57;6.15;;;5.20;;
22240;SDS011;11289;52.524;13.694;2023-05-10T04:23:23;12.07;;;4.80;;
22240;SDS011;11289;52.524;13.694;2023-05-10T04:25:48;11.80;;;5.28;;
22240;SDS011;11289;52.524;13.694;2023-05-10T04:28:14;6.95;;;4.47;;
22240;SDS011;11289;52.524;13.694;2023-05-10T04:30:40;10.25;;;5.50;;
22240;SDS011;11289;52.524;13.694;2023-05-10T04:33:06;7.85;;;5.00;;
22240;SDS011;11289;52.524;13.694;2023-05-10T04:35:32;7.45;;;5.18;;
22240;SDS011;11289;52.524;13.694;2023-05-10T04:37:59;10.07;;;4.05;;
22240;SDS011;11289;52.524;13.694;2023-05-10T04:40:25;6.70;;;4.65;;
22240;SDS011;11289;52.524;13.694;2023-05-10T04:42:51;8.18;;;5.22;;
22240;SDS011;11289;52.524;13.694;2023-05-10T04:45:17;7.55;;;4.57;;
22240;SDS011;11289;52.524;13.694;2023-05-10T04:47:43;7.13;;;5.35;;
22240;SDS011;11289;52.524;13.694;2023-05-10T04:50:09;7.57;;;4.70;;
22240;SDS011;11289;52.524;13.694;2023-05-10T04:52:35;7.80;;;4.80;;
22240;SDS011;11289;52.524;13.694;2023-05-10T04:55:02;6.97;;;4.20;;
22240;SDS011;11289;52.524;13.694;2023-05-10T04:57:28;6.90;;;4.47;;
22240;SDS011;11289;52.524;13.694;2023-05-10T04:59:54;5.68;;;4.28;;
22240;SDS011;11289;52.524;13.694;2023-05-10T05:02:20;9.95;;;5.47;;
22240;SDS011;11289;52.524;13.694;2023-05-10T05:04:45;5.70;;;4.45;;
22240;SDS011;11289;52.524;13.694;2023-05-10T05:07:11;6.40;;;4.18;;
22240;SDS011;11289;52.524;13.694;2023-05-10T05:09:38;9.07;;;5.10;;
22240;SDS011;11289;52.524;13.694;2023-05-10T05:12:03;6.25;;;3.67;;
22240;SDS011;11289;52.524;13.694;2023-05-10T05:14:30;6.50;;;4.18;;
22240;SDS011;11289;52.524;13.694;2023-05-10T05:16:56;5.13;;;4.13;;
22240;SDS011;11289;52.524;13.694;2023-05-10T05:19:22;6.13;;;3.95;;
22240;SDS011;11289;52.524;13.694;2023-05-10T05:21:48;6.32;;;3.70;;
22240;SDS011;11289;52.524;13.694;2023-05-10T05:24:14;6.88;;;4.18;;
22240;SDS011;11289;52.524;13.694;2023-05-10T05:26:40;8.65;;;4.45;;
22240;SDS011;11289;52.524;13.694;2023-05-10T05:29:06;5.68;;;3.78;;
22240;SDS011;11289;52.524;13.694;2023-05-10T05:31:32;8.40;;;4.75;;
22240;SDS011;11289;52.524;13.694;2023-05-10T05:33:58;6.63;;;4.13;;
22240;SDS011;11289;52.524;13.694;2023-05-10T05:36:24;5.03;;;3.50;;
22240;SDS011;11289;52.524;13.694;2023-05-10T05:38:50;6.70;;;4.32;;
22240;SDS011;11289;52.524;13.694;2023-05-10T05:41:16;8.35;;;4.35;;
22240;SDS011;11289;52.524;13.694;2023-05-10T05:43:42;7.20;;;4.22;;
22240;SDS011;11289;52.524;13.694;2023-05-10T05:46:08;5.55;;;4.28;;
22240;SDS011;11289;52.524;13.694;2023-05-10T05:48:34;5.93;;;3.65;;
22240;SDS011;11289;52.524;13.694;2023-05-10T05:51:00;5.85;;;4.03;;
22240;SDS011;11289;52.524;13.694;2023-05-10T05:53:27;6.28;;;3.80;;
22240;SDS011;11289;52.524;13.694;2023-05-10T05:55:56;4.38;;;3.20;;
22240;SDS011;11289;52.524;13.694;2023-05-10T05:58:23;5.05;;;3.65;;
22240;SDS011;11289;52.524;13.694;2023-05-10T06:00:50;8.60;;;4.18;;
22240;SDS011;11289;52.524;13.694;2023-05-10T06:03:20;5.03;;;3.45;;
22240;SDS011;11289;52.524;13.694;2023-05-10T06:05:47;6.72;;;3.35;;
22240;SDS011;11289;52.524;13.694;2023-05-10T06:08:13;4.72;;;3.22;;
22240;SDS011;11289;52.524;13.694;2023-05-10T06:10:39;5.00;;;3.13;;
22240;SDS011;11289;52.524;13.694;2023-05-10T06:13:05;6.10;;;2.72;;
22240;SDS011;11289;52.524;13.694;2023-05-10T06:15:31;4.40;;;3.03;;
22240;SDS011;11289;52.524;13.694;2023-05-10T06:17:58;4.00;;;2.85;;
22240;SDS011;11289;52.524;13.694;2023-05-10T06:20:24;5.63;;;3.22;;
22240;SDS011;11289;52.524;13.694;2023-05-10T06:22:50;5.63;;;2.88;;
22240;SDS011;11289;52.524;13.694;2023-05-10T06:25:16;6.68;;;3.55;;
22240;SDS011;11289;52.524;13.694;2023-05-10T06:27:43;5.25;;;3.13;;
22240;SDS011;11289;52.524;13.694;2023-05-10T06:30:10;5.53;;;2.97;;
22240;SDS011;11289;52.524;13.694;2023-05-10T06:32:36;5.80;;;2.85;;
22240;SDS011;11289;52.524;13.694;2023-05-10T06:35:02;7.07;;;3.17;;
22240;SDS011;11289;52.524;13.694;2023-05-10T06:37:29;3.67;;;2.53;;
22240;SDS011;11289;52.524;13.694;2023-05-10T06:39:54;3.40;;;3.03;;
22240;SDS011;11289;52.524;13.694;2023-05-10T06:42:20;4.55;;;3.33;;
22240;SDS011;11289;52.524;13.694;2023-05-10T06:44:46;4.20;;;2.42;;
22240;SDS011;11289;52.524;13.694;2023-05-10T06:47:12;4.65;;;2.60;;
22240;SDS011;11289;52.524;13.694;2023-05-10T06:49:38;3.75;;;2.30;;
22240;SDS011;11289;52.524;13.694;2023-05-10T06:52:05;3.75;;;2.35;;
22240;SDS011;11289;52.524;13.694;2023-05-10T06:54:31;6.93;;;2.10;;
22240;SDS011;11289;52.524;13.694;2023-05-10T06:56:57;5.13;;;2.03;;
22240;SDS011;11289;52.524;13.694;2023-05-10T06:59:23;5.80;;;2.03;;
22240;SDS011;11289;52.524;13.694;2023-05-10T07:01:49;3.90;;;2.35;;
22240;SDS011;11289;52.524;13.694;2023-05-10T07:04:15;5.20;;;2.22;;
22240;SDS011;11289;52.524;13.694;2023-05-10T07:06:41;3.92;;;2.20;;
22240;SDS011;11289;52.524;13.694;2023-05-10T07:09:07;4.28;;;2.42;;
22240;SDS011;11289;52.524;13.694;2023-05-10T07:11:33;5.88;;;2.67;;
22240;SDS011;11289;52.524;13.694;2023-05-10T07:13:59;4.10;;;2.65;;
22240;SDS011;11289;52.524;13.694;2023-05-10T07:16:25;4.38;;;2.60;;
22240;SDS011;11289;52.524;13.694;2023-05-10T07:18:51;4.70;;;2.92;;
22240;SDS011;11289;52.524;13.694;2023-05-10T07:21:18;4.07;;;2.17;;
22240;SDS011;11289;52.524;13.694;2023-05-10T07:23:44;6.47;;;3.03;;
22240;SDS011;11289;52.524;13.694;2023-05-10T07:26:10;2.83;;;2.35;;
22240;SDS011;11289;52.524;13.694;2023-05-10T07:28:37;4.03;;;2.70;;
22240;SDS011;11289;52.524;13.694;2023-05-10T07:31:03;5.22;;;2.38;;
22240;SDS011;11289;52.524;13.694;2023-05-10T07:33:29;4.95;;;2.83;;
22240;SDS011;11289;52.524;13.694;2023-05-10T07:35:55;4.13;;;2.55;;
22240;SDS011;11289;52.524;13.694;2023-05-10T07:38:21;2.63;;;2.20;;
22240;SDS011;11289;52.524;13.694;2023-05-10T07:40:47;2.63;;;2.17;;
22240;SDS011;11289;52.524;13.694;2023-05-10T07:43:13;3.67;;;2.03;;
22240;SDS011;11289;52.524;13.694;2023-05-10T07:45:39;5.53;;;2.50;;
22240;SDS011;11289;52.524;13.694;2023-05-10T07:48:05;6.03;;;2.30;;
22240;SDS011;11289;52.524;13.694;2023-05-10T07:50:31;3.95;;;2.53;;
22240;SDS011;11289;52.524;13.694;2023-05-10T07:52:57;3.30;;;2.30;;
22240;SDS011;11289;52.524;13.694;2023-05-10T07:55:23;3.20;;;2.40;;
22240;SDS011;11289;52.524;13.694;2023-05-10T07:57:49;3.33;;;2.05;;
22240;SDS011;11289;52.524;13.694;2023-05-10T08:00:19;4.93;;;2.33;;
22240;SDS011;11289;52.524;13.694;2023-05-10T08:02:45;6.40;;;2.30;;
22240;SDS011;11289;52.524;13.694;2023-05-10T08:05:12;3.13;;;2.13;;
22240;SDS011;11289;52.524;13.694;2023-05-10T08:07:39;6.80;;;2.70;;
22240;SDS011;11289;52.524;13.694;2023-05-10T08:10:05;5.10;;;2.40;;
22240;SDS011;11289;52.524;13.694;2023-05-10T08:12:31;5.20;;;2.83;;
22240;SDS011;11289;52.524;13.694;2023-05-10T08:14:57;3.72;;;2.30;;
22240;SDS011;11289;52.524;13.694;2023-05-10T08:17:23;3.92;;;2.30;;
22240;SDS011;11289;52.524;13.694;2023-05-10T08:19:49;3.38;;;2.15;;
22240;SDS011;11289;52.524;13.694;2023-05-10T08:22:15;2.10;;;1.70;;
22240;SDS011;11289;52.524;13.694;2023-05-10T08:24:42;5.28;;;1.98;;
22240;SDS011;11289;52.524;13.694;2023-05-10T08:27:08;4.65;;;2.13;;
22240;SDS011;11289;52.524;13.694;2023-05-10T08:29:34;3.67;;;2.15;;
22240;SDS011;11289;52.524;13.694;2023-05-10T08:32:00;3.92;;;2.65;;
22240;SDS011;11289;52.524;13.694;2023-05-10T08:34:27;3.55;;;2.85;;
22240;SDS011;11289;52.524;13.694;2023-05-10T08:36:52;3.67;;;2.72;;
22240;SDS011;11289;52.524;13.694;2023-05-10T08:39:18;3.10;;;2.03;;
22240;SDS011;11289;52.524;13.694;2023-05-10T08:41:45;3.08;;;1.92;;
22240;SDS011;11289;52.524;13.694;2023-05-10T08:44:13;3.30;;;2.22;;
22240;SDS011;11289;52.524;13.694;2023-05-10T08:46:41;3.55;;;2.38;;
22240;SDS011;11289;52.524;13.694;2023-05-10T08:49:10;4.20;;;2.33;;
22240;SDS011;11289;52.524;13.694;2023-05-10T08:51:40;6.38;;;2.33;;
22240;SDS011;11289;52.524;13.694;2023-05-10T08:54:09;4.53;;;1.90;;
22240;SDS011;11289;52.524;13.694;2023-05-10T08:56:36;5.20;;;2.08;;
22240;SDS011;11289;52.524;13.694;2023-05-10T08:59:02;3.03;;;2.05;;
22240;SDS011;11289;52.524;13.694;2023-05-10T09:01:28;3.63;;;2.10;;
22240;SDS011;11289;52.524;13.694;2023-05-10T09:03:56;4.43;;;1.77;;
22240;SDS011;11289;52.524;13.694;2023-05-10T09:06:22;4.20;;;2.40;;
22240;SDS011;11289;52.524;13.694;2023-05-10T09:08:48;4.30;;;2.47;;
22240;SDS011;11289;52.524;13.694;2023-05-10T09:11:15;2.47;;;2.08;;
22240;SDS011;11289;52.524;13.694;2023-05-10T09:13:41;3.45;;;1.88;;
22240;SDS011;11289;52.524;13.694;2023-05-10T09:16:08;3.20;;;2.33;;
22240;SDS011;11289;52.524;13.694;2023-05-10T09:18:35;3.13;;;1.83;;
22240;SDS011;11289;52.524;13.694;2023-05-10T09:21:00;3.80;;;2.35;;
22240;SDS011;11289;52.524;13.694;2023-05-10T09:23:27;3.20;;;2.35;;
22240;SDS011;11289;52.524;13.694;2023-05-10T09:26:06;4.63;;;2.10;;
22240;SDS011;11289;52.524;13.694;2023-05-10T09:28:33;6.50;;;2.20;;
22240;SDS011;11289;52.524;13.694;2023-05-10T09:31:00;3.05;;;2.25;;
22240;SDS011;11289;52.524;13.694;2023-05-10T09:33:26;3.72;;;2.53;;
22240;SDS011;11289;52.524;13.694;2023-05-10T09:35:52;2.75;;;2.15;;
22240;SDS011;11289;52.524;13.694;2023-05-10T09:38:18;3.58;;;2.00;;
22240;SDS011;11289;52.524;13.694;2023-05-10T09:40:50;3.33;;;2.40;;
22240;SDS011;11289;52.524;13.694;2023-05-10T09:43:20;3.17;;;2.42;;
22240;SDS011;11289;52.524;13.694;2023-05-10T09:45:45;4.07;;;2.33;;
22240;SDS011;11289;52.524;13.694;2023-05-10T09:48:15;4.78;;;2.55;;
22240;SDS011;11289;52.524;13.694;2023-05-10T09:50:41;3.35;;;2.20;;
22240;SDS011;11289;52.524;13.694;2023-05-10T09:53:07;3.35;;;2.35;;
22240;SDS011;11289;52.524;13.694;2023-05-10T09:55:42;3.28;;;2.20;;
22240;SDS011;11289;52.524;13.694;2023-05-10T09:58:14;6.25;;;2.58;;
22240;SDS011;11289;52.524;13.694;2023-05-10T10:00:45;4.88;;;2.35;;
22240;SDS011;11289;52.524;13.694;2023-05-10T10:03:18;5.53;;;2.33;;
22240;SDS011;11289;52.524;13.694;2023-05-10T10:05:45;4.15;;;2.40;;
22240;SDS011;11289;52.524;13.694;2023-05-10T10:08:13;2.92;;;2.50;;
22240;SDS011;11289;52.524;13.694;2023-05-10T10:10:40;4.63;;;2.13;;
22240;SDS011;11289;52.524;13.694;2023-05-10T10:13:07;3.75;;;2.42;;
22240;SDS011;11289;52.524;13.694;2023-05-10T10:15:33;3.70;;;2.47;;
22240;SDS011;11289;52.524;13.694;2023-05-10T10:18:00;3.33;;;2.35;;
22240;SDS011;11289;52.524;13.694;2023-05-10T10:20:27;4.15;;;2.10;;
22240;SDS011;11289;52.524;13.694;2023-05-10T10:22:53;3.60;;;2.78;;
22240;SDS011;11289;52.524;13.694;2023-05-10T10:25:20;3.58;;;2.03;;
22240;SDS011;11289;52.524;13.694;2023-05-10T10:35:33;2.75;;;1.77;;
22240;SDS011;11289;52.524;13.694;2023-05-10T10:38:00;5.30;;;2.28;;
22240;SDS011;11289;52.524;13.694;2023-05-10T10:40:26;2.78;;;1.85;;
22240;SDS011;11289;52.524;13.694;2023-05-10T10:42:54;6.05;;;2.30;;
22240;SDS011;11289;52.524;13.694;2023-05-10T10:45:21;2.30;;;1.90;;
22240;SDS011;11289;52.524;13.694;2023-05-10T10:47:50;3.38;;;2.33;;
22240;SDS011;11289;52.524;13.694;2023-05-10T10:50:45;5.00;;;1.88;;
22240;SDS011;11289;52.524;13.694;2023-05-10T10:53:14;5.40;;;2.03;;
22240;SDS011;11289;52.524;13.694;2023-05-10T10:55:45;3.42;;;2.05;;
22240;SDS011;11289;52.524;13.694;2023-05-10T10:58:35;2.67;;;1.95;;
22240;SDS011;11289;52.524;13.694;2023-05-10T11:01:13;6.57;;;2.30;;
22240;SDS011;11289;52.524;13.694;2023-05-10T11:06:30;6.70;;;2.25;;
22240;SDS011;11289;52.524;13.694;2023-05-10T11:08:58;4.05;;;1.90;;
22240;SDS011;11289;52.524;13.694;2023-05-10T11:11:24;5.25;;;2.15;;
22240;SDS011;11289;52.524;13.694;2023-05-10T11:13:50;3.40;;;1.95;;
22240;SDS011;11289;52.524;13.694;2023-05-10T11:23:57;3.42;;;1.90;;
22240;SDS011;11289;52.524;13.694;2023-05-10T11:26:25;2.70;;;1.90;;
22240;SDS011;11289;52.524;13.694;2023-05-10T11:28:59;4.88;;;2.38;;
22240;SDS011;11289;52.524;13.694;2023-05-10T11:31:27;6.13;;;1.90;;
22240;SDS011;11289;52.524;13.694;2023-05-10T11:33:57;3.15;;;1.98;;
22240;SDS011;11289;52.524;13.694;2023-05-10T11:36:29;5.07;;;1.80;;
22240;SDS011;11289;52.524;13.694;2023-05-10T11:38:58;3.08;;;1.98;;
22240;SDS011;11289;52.524;13.694;2023-05-10T11:41:24;2.50;;;1.80;;
22240;SDS011;11289;52.524;13.694;2023-05-10T11:43:53;2.95;;;1.92;;
22240;SDS011;11289;52.524;13.694;2023-05-10T11:46:21;2.47;;;1.75;;
22240;SDS011;11289;52.524;13.694;2023-05-10T11:48:49;4.30;;;2.05;;
22240;SDS011;11289;52.524;13.694;2023-05-10T11:51:20;4.80;;;1.70;;
22240;SDS011;11289;52.524;13.694;2023-05-10T11:53:48;4.05;;;1.42;;
22240;SDS011;11289;52.524;13.694;2023-05-10T11:56:15;5.45;;;1.90;;
22240;SDS011;11289;52.524;13.694;2023-05-10T11:58:41;4.60;;;2.63;;
22240;SDS011;11289;52.524;13.694;2023-05-10T12:01:08;2.47;;;1.85;;
22240;SDS011;11289;52.524;13.694;2023-05-10T12:03:35;3.72;;;1.70;;
22240;SDS011;11289;52.524;13.694;2023-05-10T12:06:02;8.85;;;2.42;;
22240;SDS011;11289;52.524;13.694;2023-05-10T12:08:29;4.88;;;1.70;;
22240;SDS011;11289;52.524;13.694;2023-05-10T12:11:06;5.68;;;2.15;;
22240;SDS011;11289;52.524;13.694;2023-05-10T12:13:40;7.43;;;2.10;;
22240;SDS011;11289;52.524;13.694;2023-05-10T12:16:17;3.38;;;1.92;;
22240;SDS011;11289;52.524;13.694;2023-05-10T12:18:48;3.75;;;1.60;;
22240;SDS011;11289;52.524;13.694;2023-05-10T12:21:19;4.47;;;1.90;;
22240;SDS011;11289;52.524;13.694;2023-05-10T12:23:46;7.50;;;2.30;;
22240;SDS011;11289;52.524;13.694;2023-05-10T12:26:15;3.13;;;1.83;;
22240;SDS011;11289;52.524;13.694;2023-05-10T12:28:41;4.53;;;1.70;;
22240;SDS011;11289;52.524;13.694;2023-05-10T12:31:07;2.67;;;1.77;;
22240;SDS011;11289;52.524;13.694;2023-05-10T12:33:37;3.72;;;1.80;;
22240;SDS011;11289;52.524;13.694;2023-05-10T12:36:04;2.78;;;1.63;;
22240;SDS011;11289;52.524;13.694;2023-05-10T12:38:33;5.72;;;2.33;;
22240;SDS011;11289;52.524;13.694;2023-05-10T12:41:00;3.35;;;1.42;;
22240;SDS011;11289;52.524;13.694;2023-05-10T12:43:28;7.90;;;1.90;;
22240;SDS011;11289;52.524;13.694;2023-05-10T12:45:54;4.43;;;1.70;;
22240;SDS011;11289;52.524;13.694;2023-05-10T12:48:20;3.00;;;1.08;;
22240;SDS011;11289;52.524;13.694;2023-05-10T12:50:46;4.18;;;1.52;;
22240;SDS011;11289;52.524;13.694;2023-05-10T12:53:15;4.78;;;1.92;;
22240;SDS011;11289;52.524;13.694;2023-05-10T12:55:42;2.88;;;1.42;;
22240;SDS011;11289;52.524;13.694;2023-05-10T12:58:08;6.28;;;1.50;;
22240;SDS011;11289;52.524;13.694;2023-05-10T13:00:34;2.15;;;1.30;;
22240;SDS011;11289;52.524;13.694;2023-05-10T13:03:00;2.08;;;1.60;;
22240;SDS011;11289;52.524;13.694;2023-05-10T13:05:26;2.88;;;1.52;;
22240;SDS011;11289;52.524;13.694;2023-05-10T13:07:52;3.15;;;1.50;;
22240;SDS011;11289;52.524;13.694;2023-05-10T13:10:18;2.72;;;1.58;;
22240;SDS011;11289;52.524;13.694;2023-05-10T13:12:44;4.82;;;1.60;;
22240;SDS011;11289;52.524;13.694;2023-05-10T13:15:10;4.70;;;1.88;;
22240;SDS011;11289;52.524;13.694;2023-05-10T13:17:36;3.88;;;1.60;;
22240;SDS011;11289;52.524;13.694;2023-05-10T13:20:04;5.25;;;1.35;;
22240;SDS011;11289;52.524;13.694;2023-05-10T13:22:31;2.10;;;1.30;;
22240;SDS011;11289;52.524;13.694;2023-05-10T13:24:57;4.03;;;1.85;;
22240;SDS011;11289;52.524;13.694;2023-05-10T13:27:23;2.88;;;1.20;;
22240;SDS011;11289;52.524;13.694;2023-05-10T13:29:49;2.40;;;1.20;;
22240;SDS011;11289;52.524;13.694;2023-05-10T13:32:15;2.70;;;1.20;;
22240;SDS011;11289;52.524;13.694;2023-05-10T13:34:41;2.08;;;1.25;;
22240;SDS011;11289;52.524;13.694;2023-05-10T13:37:10;3.83;;;1.27;;
22240;SDS011;11289;52.524;13.694;2023-05-10T13:39:36;3.15;;;1.27;;
22240;SDS011;11289;52.524;13.694;2023-05-10T13:42:05;4.10;;;1.60;;
22240;SDS011;11289;52.524;13.694;2023-05-10T13:47:20;3.88;;;1.40;;
22240;SDS011;11289;52.524;13.694;2023-05-10T13:49:48;2.55;;;1.48;;
22240;SDS011;11289;52.524;13.694;2023-05-10T13:52:14;3.95;;;1.52;;
22240;SDS011;11289;52.524;13.694;2023-05-10T13:54:40;3.67;;;1.17;;
22240;SDS011;11289;52.524;13.694;2023-05-10T13:57:07;3.78;;;1.40;;
22240;SDS011;11289;52.524;13.694;2023-05-10T13:59:38;1.70;;;1.30;;
22240;SDS011;11289;52.524;13.694;2023-05-10T14:02:04;4.15;;;1.50;;
22240;SDS011;11289;52.524;13.694;2023-05-10T14:04:30;3.42;;;1.70;;
22240;SDS011;11289;52.524;13.694;2023-05-10T14:06:57;2.60;;;1.52;;
22240;SDS011;11289;52.524;13.694;2023-05-10T14:09:23;2.40;;;1.35;;
22240;SDS011;11289;52.524;13.694;2023-05-10T14:11:49;3.65;;;1.30;;
22240;SDS011;11289;52.524;13.694;2023-05-10T14:14:15;4.35;;;1.98;;
22240;SDS011;11289;52.524;13.694;2023-05-10T14:16:42;2.50;;;1.70;;
22240;SDS011;11289;52.524;13.694;2023-05-10T14:19:09;2.33;;;1.40;;
22240;SDS011;11289;52.524;13.694;2023-05-10T14:21:35;4.28;;;1.30;;
22240;SDS011;11289;52.524;13.694;2023-05-10T14:24:01;2.60;;;1.30;;
22240;SDS011;11289;52.524;13.694;2023-05-10T14:26:27;4.38;;;1.77;;
22240;SDS011;11289;52.524;13.694;2023-05-10T14:28:53;4.15;;;1.38;;
22240;SDS011;11289;52.524;13.694;2023-05-10T14:31:19;3.17;;;1.35;;
22240;SDS011;11289;52.524;13.694;2023-05-10T14:33:46;5.00;;;1.30;;
22240;SDS011;11289;52.524;13.694;2023-05-10T14:36:12;3.22;;;1.58;;
22240;SDS011;11289;52.524;13.694;2023-05-10T14:38:39;2.38;;;1.20;;
22240;SDS011;11289;52.524;13.694;2023-05-10T14:41:06;3.25;;;1.20;;
22240;SDS011;11289;52.524;13.694;2023-05-10T14:43:32;2.53;;;1.35;;
22240;SDS011;11289;52.524;13.694;2023-05-10T14:45:58;2.08;;;1.52;;
22240;SDS011;11289;52.524;13.694;2023-05-10T14:48:24;2.08;;;1.40;;
22240;SDS011;11289;52.524;13.694;2023-05-10T14:50:50;3.72;;;1.50;;
22240;SDS011;11289;52.524;13.694;2023-05-10T14:53:18;2.08;;;1.60;;
22240;SDS011;11289;52.524;13.694;2023-05-10T14:55:44;4.15;;;1.58;;
22240;SDS011;11289;52.524;13.694;2023-05-10T14:58:10;3.65;;;1.30;;
22240;SDS011;11289;52.524;13.694;2023-05-10T15:00:36;2.92;;;1.30;;
22240;SDS011;11289;52.524;13.694;2023-05-10T15:03:04;2.08;;;1.20;;
22240;SDS011;11289;52.524;13.694;2023-05-10T15:05:30;3.35;;;1.35;;
22240;SDS011;11289;52.524;13.694;2023-05-10T15:07:56;3.13;;;2.05;;
22240;SDS011;11289;52.524;13.694;2023-05-10T15:10:23;3.97;;;1.38;;
22240;SDS011;11289;52.524;13.694;2023-05-10T15:12:49;3.17;;;1.50;;
22240;SDS011;11289;52.524;13.694;2023-05-10T15:15:15;3.40;;;1.30;;
22240;SDS011;11289;52.524;13.694;2023-05-10T15:17:41;2.28;;;1.45;;
22240;SDS011;11289;52.524;13.694;2023-05-10T15:20:08;3.47;;;1.23;;